Terminal Aerodrome Forecast
Issued by NWS

Home | Current Version | Previous Version | Text Only | Print | Product List | Glossary On
Versions: 1 2 3 4 5 6 7 8 9 10 11 12 13 14 15 16 17 18 19 20
000
FTUS43 KGRB 011700
TAFATW
TAF
KATW 011738Z 0118/0218 04018G25KT 3SM -SN SCT015 OVC029
      TEMPO 0118/0121 1SM -SN BLSN BKN015
     FM012200 03017G28KT 5SM -SHSN BLSN BKN030
     FM020300 01015G23KT P6SM SCT035 BKN070
     FM020600 35011KT P6SM SCT070 BKN120=

USA.gov is the U.S. government's official web portal to all federal, state and local government web resources and services.